sensor_id;sensor_type;location;lat;lon;timestamp;pressure;altitude;pressure_sealevel;temperature;humidity
20043;BME280;10182;52.896;6.496;2023-02-13T00:04:54;103719.06;;;6.18;100.00
20043;BME280;10182;52.896;6.496;2023-02-13T00:09:56;103721.53;;;6.10;100.00
20043;BME280;10182;52.896;6.496;2023-02-13T00:14:59;103715.38;;;6.08;100.00
20043;BME280;10182;52.896;6.496;2023-02-13T00:20:01;103712.72;;;6.07;100.00
20043;BME280;10182;52.896;6.496;2023-02-13T00:25:03;103711.84;;;6.09;100.00
20043;BME280;10182;52.896;6.496;2023-02-13T00:30:08;103702.22;;;6.08;100.00
20043;BME280;10182;52.896;6.496;2023-02-13T00:35:10;103702.91;;;6.01;100.00
20043;BME280;10182;52.896;6.496;2023-02-13T00:40:12;103703.63;;;5.94;100.00
20043;BME280;10182;52.896;6.496;2023-02-13T00:45:15;103698.53;;;6.00;100.00
20043;BME280;10182;52.896;6.496;2023-02-13T00:50:17;103693.13;;;5.96;100.00
20043;BME280;10182;52.896;6.496;2023-02-13T00:55:20;103695.66;;;5.89;100.00
20043;BME280;10182;52.896;6.496;2023-02-13T01:00:23;103698.25;;;5.88;100.00
20043;BME280;10182;52.896;6.496;2023-02-13T01:05:25;103698.28;;;5.89;100.00
20043;BME280;10182;52.896;6.496;2023-02-13T01:10:29;103699.13;;;5.87;100.00
20043;BME280;10182;52.896;6.496;2023-02-13T01:15:32;103693.81;;;5.85;100.00
20043;BME280;10182;52.896;6.496;2023-02-13T01:20:34;103695.69;;;5.91;100.00
20043;BME280;10182;52.896;6.496;2023-02-13T01:25:38;103695.63;;;5.88;100.00
20043;BME280;10182;52.896;6.496;2023-02-13T01:30:42;103707.81;;;5.84;100.00
20043;BME280;10182;52.896;6.496;2023-02-13T01:35:43;103699.00;;;5.82;100.00
20043;BME280;10182;52.896;6.496;2023-02-13T01:40:46;103698.09;;;5.80;100.00
20043;BME280;10182;52.896;6.496;2023-02-13T01:45:50;103689.34;;;5.80;100.00
20043;BME280;10182;52.896;6.496;2023-02-13T01:50:56;103698.03;;;5.77;100.00
20043;BME280;10182;52.896;6.496;2023-02-13T01:56:04;103687.53;;;5.77;100.00
20043;BME280;10182;52.896;6.496;2023-02-13T02:01:10;103695.47;;;5.80;100.00
20043;BME280;10182;52.896;6.496;2023-02-13T02:06:16;103694.66;;;5.83;100.00
20043;BME280;10182;52.896;6.496;2023-02-13T02:11:24;103686.78;;;5.84;100.00
20043;BME280;10182;52.896;6.496;2023-02-13T02:16:30;103675.28;;;5.79;100.00
20043;BME280;10182;52.896;6.496;2023-02-13T02:22:12;103668.31;;;5.81;100.00
20043;BME280;10182;52.896;6.496;2023-02-13T02:33:06;103672.63;;;5.78;100.00
20043;BME280;10182;52.896;6.496;2023-02-13T02:38:20;103674.25;;;5.72;100.00
20043;BME280;10182;52.896;6.496;2023-02-13T02:43:34;103677.91;;;5.79;100.00
20043;BME280;10182;52.896;6.496;2023-02-13T02:48:44;103676.06;;;5.75;100.00
20043;BME280;10182;52.896;6.496;2023-02-13T02:54:10;103680.53;;;5.79;100.00
20043;BME280;10182;52.896;6.496;2023-02-13T02:59:29;103682.22;;;5.75;100.00
20043;BME280;10182;52.896;6.496;2023-02-13T03:04:52;103676.06;;;5.75;100.00
20043;BME280;10182;52.896;6.496;2023-02-13T03:10:14;103676.06;;;5.75;100.00
20043;BME280;10182;52.896;6.496;2023-02-13T03:15:37;103667.19;;;5.70;100.00
20043;BME280;10182;52.896;6.496;2023-02-13T03:21:07;103658.41;;;5.68;100.00
20043;BME280;10182;52.896;6.496;2023-02-13T03:26:41;103658.41;;;5.69;100.00
20043;BME280;10182;52.896;6.496;2023-02-13T03:31:53;103668.13;;;5.72;100.00
20043;BME280;10182;52.896;6.496;2023-02-13T03:37:05;103654.81;;;5.64;100.00
20043;BME280;10182;52.896;6.496;2023-02-13T03:42:30;103658.34;;;5.65;100.00
20043;BME280;10182;52.896;6.496;2023-02-13T03:47:33;103668.03;;;5.67;100.00
20043;BME280;10182;52.896;6.496;2023-02-13T03:52:39;103662.69;;;5.64;100.00
20043;BME280;10182;52.896;6.496;2023-02-13T03:57:45;103674.19;;;5.69;100.00
20043;BME280;10182;52.896;6.496;2023-02-13T04:03:10;103676.00;;;5.72;100.00
20043;BME280;10182;52.896;6.496;2023-02-13T04:08:15;103672.38;;;5.65;100.00
20043;BME280;10182;52.896;6.496;2023-02-13T04:13:21;103664.41;;;5.62;100.00
20043;BME280;10182;52.896;6.496;2023-02-13T04:18:28;103672.31;;;5.62;100.00
20043;BME280;10182;52.896;6.496;2023-02-13T04:23:32;103667.84;;;5.58;100.00
20043;BME280;10182;52.896;6.496;2023-02-13T04:28:34;103668.66;;;5.55;100.00
20043;BME280;10182;52.896;6.496;2023-02-13T04:33:36;103670.34;;;5.53;100.00
20043;BME280;10182;52.896;6.496;2023-02-13T04:38:39;103670.31;;;5.50;100.00
20043;BME280;10182;52.896;6.496;2023-02-13T04:43:40;103671.22;;;5.52;100.00
20043;BME280;10182;52.896;6.496;2023-02-13T04:54:40;103649.19;;;5.46;100.00
20043;BME280;10182;52.896;6.496;2023-02-13T04:59:42;103658.75;;;5.43;100.00
20043;BME280;10182;52.896;6.496;2023-02-13T05:04:44;103649.16;;;5.44;100.00
20043;BME280;10182;52.896;6.496;2023-02-13T05:09:47;103649.06;;;5.41;100.00
20043;BME280;10182;52.896;6.496;2023-02-13T05:14:48;103647.25;;;5.38;100.00
20043;BME280;10182;52.896;6.496;2023-02-13T05:19:50;103648.97;;;5.36;100.00
20043;BME280;10182;52.896;6.496;2023-02-13T05:24:53;103652.59;;;5.41;100.00
20043;BME280;10182;52.896;6.496;2023-02-13T05:29:55;103652.59;;;5.41;100.00
20043;BME280;10182;52.896;6.496;2023-02-13T05:34:56;103653.44;;;5.40;100.00
20043;BME280;10182;52.896;6.496;2023-02-13T05:39:59;103652.50;;;5.38;100.00
20043;BME280;10182;52.896;6.496;2023-02-13T05:45:01;103657.84;;;5.40;100.00
20043;BME280;10182;52.896;6.496;2023-02-13T05:50:03;103656.03;;;5.37;100.00
20043;BME280;10182;52.896;6.496;2023-02-13T05:55:07;103663.09;;;5.40;100.00
20043;BME280;10182;52.896;6.496;2023-02-13T06:00:09;103667.47;;;5.41;100.00
20043;BME280;10182;52.896;6.496;2023-02-13T06:05:11;103674.22;;;5.28;100.00
20043;BME280;10182;52.896;6.496;2023-02-13T06:10:14;103686.53;;;5.31;100.00
20043;BME280;10182;52.896;6.496;2023-02-13T06:15:16;103681.34;;;5.34;100.00
20043;BME280;10182;52.896;6.496;2023-02-13T06:20:18;103671.66;;;5.33;100.00
20043;BME280;10182;52.896;6.496;2023-02-13T06:25:21;103672.56;;;5.32;100.00
20043;BME280;10182;52.896;6.496;2023-02-13T06:30:23;103684.78;;;5.31;100.00
20043;BME280;10182;52.896;6.496;2023-02-13T06:35:25;103686.47;;;5.28;100.00
20043;BME280;10182;52.896;6.496;2023-02-13T06:40:29;103686.47;;;5.28;100.00
20043;BME280;10182;52.896;6.496;2023-02-13T06:45:30;103687.31;;;5.27;100.00
20043;BME280;10182;52.896;6.496;2023-02-13T06:50:32;103696.13;;;5.29;100.00
20043;BME280;10182;52.896;6.496;2023-02-13T06:55:36;103698.88;;;5.33;100.00
20043;BME280;10182;52.896;6.496;2023-02-13T07:06:19;103709.47;;;5.38;100.00
20043;BME280;10182;52.896;6.496;2023-02-13T07:11:23;103710.41;;;5.40;100.00
20043;BME280;10182;52.896;6.496;2023-02-13T07:16:25;103712.31;;;5.47;100.00
20043;BME280;10182;52.896;6.496;2023-02-13T07:21:27;103715.81;;;5.48;100.00
20043;BME280;10182;52.896;6.496;2023-02-13T07:26:30;103723.03;;;5.56;100.00
20043;BME280;10182;52.896;6.496;2023-02-13T07:31:32;103712.44;;;5.53;100.00
20043;BME280;10182;52.896;6.496;2023-02-13T07:36:33;103703.69;;;5.54;100.00
20043;BME280;10182;52.896;6.496;2023-02-13T07:41:37;103704.66;;;5.58;100.00
20043;BME280;10182;52.896;6.496;2023-02-13T07:46:38;103703.06;;;5.66;100.00
20043;BME280;10182;52.896;6.496;2023-02-13T07:51:40;103703.28;;;5.75;100.00
20043;BME280;10182;52.896;6.496;2023-02-13T07:56:43;103698.13;;;5.82;100.00
20043;BME280;10182;52.896;6.496;2023-02-13T08:01:45;103698.94;;;5.79;100.00
20043;BME280;10182;52.896;6.496;2023-02-13T08:06:46;103699.78;;;5.78;100.00
20043;BME280;10182;52.896;6.496;2023-02-13T08:11:50;103701.63;;;5.82;100.00
20043;BME280;10182;52.896;6.496;2023-02-13T08:16:57;103699.38;;;5.98;100.00
20043;BME280;10182;52.896;6.496;2023-02-13T08:21:59;103711.72;;;6.02;100.00
20043;BME280;10182;52.896;6.496;2023-02-13T08:27:02;103719.63;;;6.02;100.00
20043;BME280;10182;52.896;6.496;2023-02-13T08:32:04;103717.00;;;6.02;100.00
20043;BME280;10182;52.896;6.496;2023-02-13T08:37:06;103716.25;;;6.10;100.00
20043;BME280;10182;52.896;6.496;2023-02-13T08:42:09;103713.59;;;6.09;100.00
20043;BME280;10182;52.896;6.496;2023-02-13T08:47:11;103725.22;;;6.20;100.00
20043;BME280;10182;52.896;6.496;2023-02-13T08:52:13;103727.00;;;6.21;100.00
20043;BME280;10182;52.896;6.496;2023-02-13T08:57:16;103722.66;;;6.23;100.00
20043;BME280;10182;52.896;6.496;2023-02-13T09:02:17;103722.72;;;6.26;100.00
20043;BME280;10182;52.896;6.496;2023-02-13T09:07:19;103730.66;;;6.28;100.00
20043;BME280;10182;52.896;6.496;2023-02-13T09:12:22;103730.84;;;6.39;100.00
20043;BME280;10182;52.896;6.496;2023-02-13T09:17:24;103737.13;;;6.47;100.00
20043;BME280;10182;52.896;6.496;2023-02-13T09:22:25;103730.03;;;6.43;100.00
20043;BME280;10182;52.896;6.496;2023-02-13T09:27:29;103730.09;;;6.46;100.00
20043;BME280;10182;52.896;6.496;2023-02-13T09:32:30;103730.25;;;6.55;100.00
20043;BME280;10182;52.896;6.496;2023-02-13T09:37:51;103725.97;;;6.60;100.00
20043;BME280;10182;52.896;6.496;2023-02-13T09:43:04;103721.69;;;6.67;100.00
20043;BME280;10182;52.896;6.496;2023-02-13T09:48:16;103718.25;;;6.71;100.00
20043;BME280;10182;52.896;6.496;2023-02-13T09:53:22;103709.63;;;6.82;100.00
20043;BME280;10182;52.896;6.496;2023-02-13T09:58:41;103711.38;;;6.81;100.00
20043;BME280;10182;52.896;6.496;2023-02-13T10:03:46;103708.97;;;6.95;100.00
20043;BME280;10182;52.896;6.496;2023-02-13T10:09:00;103703.00;;;7.05;100.00
20043;BME280;10182;52.896;6.496;2023-02-13T10:14:12;103699.38;;;7.00;100.00
20043;BME280;10182;52.896;6.496;2023-02-13T10:19:26;103692.47;;;7.08;100.00
20043;BME280;10182;52.896;6.496;2023-02-13T10:24:33;103701.25;;;7.09;100.00
20043;BME280;10182;52.896;6.496;2023-02-13T10:29:42;103700.47;;;7.16;100.00
20043;BME280;10182;52.896;6.496;2023-02-13T10:35:07;103697.16;;;7.28;100.00
20043;BME280;10182;52.896;6.496;2023-02-13T10:40:17;103698.06;;;7.30;100.00
20043;BME280;10182;52.896;6.496;2023-02-13T10:45:45;103696.31;;;7.32;100.00
20043;BME280;10182;52.896;6.496;2023-02-13T10:50:56;103690.41;;;7.50;100.00
20043;BME280;10182;52.896;6.496;2023-02-13T10:56:24;103692.31;;;7.60;100.00
20043;BME280;10182;52.896;6.496;2023-02-13T11:01:32;103691.41;;;7.58;100.00
20043;BME280;10182;52.896;6.496;2023-02-13T11:06:41;103693.19;;;7.62;100.00
20043;BME280;10182;52.896;6.496;2023-02-13T11:11:43;103696.81;;;7.69;100.00
20043;BME280;10182;52.896;6.496;2023-02-13T11:16:53;103697.75;;;7.74;100.00
20043;BME280;10182;52.896;6.496;2023-02-13T11:21:58;103688.16;;;7.79;100.00
20043;BME280;10182;52.896;6.496;2023-02-13T11:27:03;103679.41;;;7.85;100.00
20043;BME280;10182;52.896;6.496;2023-02-13T11:32:21;103670.56;;;7.83;100.00
20043;BME280;10182;52.896;6.496;2023-02-13T11:37:25;103670.78;;;7.99;100.00
20043;BME280;10182;52.896;6.496;2023-02-13T11:42:29;103662.91;;;8.06;100.00
20043;BME280;10182;52.896;6.496;2023-02-13T11:47:36;103660.38;;;8.16;100.00
20043;BME280;10182;52.896;6.496;2023-02-13T11:52:38;103656.97;;;8.27;100.00
20043;BME280;10182;52.896;6.496;2023-02-13T11:57:39;103651.72;;;8.34;100.00
20043;BME280;10182;52.896;6.496;2023-02-13T12:02:46;103649.97;;;8.31;100.00
20043;BME280;10182;52.896;6.496;2023-02-13T12:07:49;103636.78;;;8.33;100.00
20043;BME280;10182;52.896;6.496;2023-02-13T12:12:53;103621.94;;;8.45;100.00
20043;BME280;10182;52.896;6.496;2023-02-13T12:18:12;103618.56;;;8.65;100.00
20043;BME280;10182;52.896;6.496;2023-02-13T12:23:27;103606.28;;;8.72;100.00
20043;BME280;10182;52.896;6.496;2023-02-13T12:28:45;103610.72;;;8.77;100.00
20043;BME280;10182;52.896;6.496;2023-02-13T12:39:32;103590.47;;;8.79;100.00
20043;BME280;10182;52.896;6.496;2023-02-13T12:44:48;103583.47;;;8.86;100.00
20043;BME280;10182;52.896;6.496;2023-02-13T12:50:10;103592.34;;;8.97;100.00
20043;BME280;10182;52.896;6.496;2023-02-13T12:55:25;103586.97;;;8.84;100.00
20043;BME280;10182;52.896;6.496;2023-02-13T13:00:40;103583.41;;;8.77;100.00
20043;BME280;10182;52.896;6.496;2023-02-13T13:05:58;103582.47;;;8.67;100.00
20043;BME280;10182;52.896;6.496;2023-02-13T13:11:13;103583.34;;;8.64;100.00
20043;BME280;10182;52.896;6.496;2023-02-13T13:16:25;103572.81;;;8.72;100.00
20043;BME280;10182;52.896;6.496;2023-02-13T13:21:40;103563.19;;;8.85;100.00
20043;BME280;10182;52.896;6.496;2023-02-13T13:26:46;103561.47;;;8.92;100.00
20043;BME280;10182;52.896;6.496;2023-02-13T13:31:52;103561.53;;;9.03;100.00
20043;BME280;10182;52.896;6.496;2023-02-13T13:36:59;103557.97;;;9.01;100.00
20043;BME280;10182;52.896;6.496;2023-02-13T13:42:08;103555.22;;;8.77;100.00
20043;BME280;10182;52.896;6.496;2023-02-13T13:47:21;103550.88;;;8.87;100.00
20043;BME280;10182;52.896;6.496;2023-02-13T13:52:27;103539.44;;;8.93;100.00
20043;BME280;10182;52.896;6.496;2023-02-13T13:58:01;103532.38;;;8.87;100.00
20043;BME280;10182;52.896;6.496;2023-02-13T14:03:33;103533.25;;;8.89;100.00
20043;BME280;10182;52.896;6.496;2023-02-13T14:14:50;103528.94;;;9.11;100.00
20043;BME280;10182;52.896;6.496;2023-02-13T14:19:52;103532.44;;;9.09;100.00
20043;BME280;10182;52.896;6.496;2023-02-13T14:24:55;103528.06;;;9.06;100.00
20043;BME280;10182;52.896;6.496;2023-02-13T14:30:00;103523.63;;;9.05;100.00
20043;BME280;10182;52.896;6.496;2023-02-13T14:35:05;103525.38;;;8.98;100.00
20043;BME280;10182;52.896;6.496;2023-02-13T14:45:56;103512.91;;;8.77;100.00
20043;BME280;10182;52.896;6.496;2023-02-13T14:50:59;103515.59;;;8.80;100.00
20043;BME280;10182;52.896;6.496;2023-02-13T14:56:05;103506.81;;;8.83;100.00
20043;BME280;10182;52.896;6.496;2023-02-13T15:01:20;103509.41;;;8.75;100.00
20043;BME280;10182;52.896;6.496;2023-02-13T15:06:26;103505.84;;;8.70;100.00
20043;BME280;10182;52.896;6.496;2023-02-13T15:11:34;103499.59;;;8.54;100.00
20043;BME280;10182;52.896;6.496;2023-02-13T15:16:38;103497.91;;;8.64;100.00
20043;BME280;10182;52.896;6.496;2023-02-13T15:21:46;103500.50;;;8.56;100.00
20043;BME280;10182;52.896;6.496;2023-02-13T15:26:52;103501.34;;;8.55;100.00
20043;BME280;10182;52.896;6.496;2023-02-13T15:31:57;103497.00;;;8.65;100.00
20043;BME280;10182;52.896;6.496;2023-02-13T15:36:59;103497.00;;;8.63;100.00
20043;BME280;10182;52.896;6.496;2023-02-13T15:42:02;103493.47;;;8.63;100.00
20043;BME280;10182;52.896;6.496;2023-02-13T15:47:07;103495.22;;;8.56;100.00
20043;BME280;10182;52.896;6.496;2023-02-13T15:52:15;103494.19;;;8.37;100.00
20043;BME280;10182;52.896;6.496;2023-02-13T15:57:19;103487.97;;;8.32;100.00
20043;BME280;10182;52.896;6.496;2023-02-13T16:02:28;103491.38;;;8.12;100.00
20043;BME280;10182;52.896;6.496;2023-02-13T16:07:46;103488.66;;;8.05;100.00
20043;BME280;10182;52.896;6.496;2023-02-13T16:12:48;103485.03;;;7.89;100.00
20043;BME280;10182;52.896;6.496;2023-02-13T16:17:51;103486.69;;;7.79;100.00
20043;BME280;10182;52.896;6.496;2023-02-13T16:22:54;103491.81;;;7.62;100.00
20043;BME280;10182;52.896;6.496;2023-02-13T16:28:00;103486.47;;;7.54;100.00
20043;BME280;10182;52.896;6.496;2023-02-13T16:33:26;103493.38;;;7.38;100.00
20043;BME280;10182;52.896;6.496;2023-02-13T16:38:32;103490.34;;;7.04;100.00
20043;BME280;10182;52.896;6.496;2023-02-13T16:43:40;103492.63;;;6.76;100.00
20043;BME280;10182;52.896;6.496;2023-02-13T16:48:45;103483.53;;;6.54;100.00
20043;BME280;10182;52.896;6.496;2023-02-13T16:53:55;103482.31;;;6.28;100.00
20043;BME280;10182;52.896;6.496;2023-02-13T16:59:04;103491.69;;;6.12;100.00
20043;BME280;10182;52.896;6.496;2023-02-13T17:04:16;103494.75;;;5.86;100.00
20043;BME280;10182;52.896;6.496;2023-02-13T17:09:20;103504.97;;;5.67;100.00
20043;BME280;10182;52.896;6.496;2023-02-13T17:14:21;103508.94;;;5.47;100.00
20043;BME280;10182;52.896;6.496;2023-02-13T17:19:24;103520.09;;;5.32;100.00
20043;BME280;10182;52.896;6.496;2023-02-13T17:24:26;103514.44;;;5.12;100.00
20043;BME280;10182;52.896;6.496;2023-02-13T17:29:28;103518.44;;;4.94;100.00
20043;BME280;10182;52.896;6.496;2023-02-13T17:34:31;103517.44;;;4.89;100.00
20043;BME280;10182;52.896;6.496;2023-02-13T17:39:33;103507.59;;;4.77;100.00
20043;BME280;10182;52.896;6.496;2023-02-13T17:44:34;103506.44;;;4.66;100.00
20043;BME280;10182;52.896;6.496;2023-02-13T17:49:37;103504.56;;;4.60;100.00
20043;BME280;10182;52.896;6.496;2023-02-13T17:54:39;103502.72;;;4.54;100.00
20043;BME280;10182;52.896;6.496;2023-02-13T17:59:41;103500.69;;;4.43;100.00
20043;BME280;10182;52.896;6.496;2023-02-13T18:04:45;103510.06;;;4.33;100.00
20043;BME280;10182;52.896;6.496;2023-02-13T18:09:47;103512.41;;;4.20;100.00
20043;BME280;10182;52.896;6.496;2023-02-13T18:14:50;103509.75;;;4.19;100.00
20043;BME280;10182;52.896;6.496;2023-02-13T18:19:54;103505.25;;;4.13;100.00
20043;BME280;10182;52.896;6.496;2023-02-13T18:24:57;103507.91;;;4.15;100.00
20043;BME280;10182;52.896;6.496;2023-02-13T18:29:58;103502.25;;;4.34;100.00
20043;BME280;10182;52.896;6.496;2023-02-13T18:35:02;103502.91;;;4.64;100.00
20043;BME280;10182;52.896;6.496;2023-02-13T18:40:05;103510.53;;;4.93;100.00
20043;BME280;10182;52.896;6.496;2023-02-13T18:45:08;103507.41;;;5.11;100.00
20043;BME280;10182;52.896;6.496;2023-02-13T18:50:11;103491.88;;;5.23;100.00
20043;BME280;10182;52.896;6.496;2023-02-13T18:55:14;103490.13;;;5.23;100.00
20043;BME280;10182;52.896;6.496;2023-02-13T19:00:16;103495.38;;;5.23;100.00
20043;BME280;10182;52.896;6.496;2023-02-13T19:05:22;103489.22;;;5.21;100.00
20043;BME280;10182;52.896;6.496;2023-02-13T19:10:24;103489.84;;;5.09;100.00
20043;BME280;10182;52.896;6.496;2023-02-13T19:21:25;103478.09;;;4.92;100.00
20043;BME280;10182;52.896;6.496;2023-02-13T19:26:27;103483.34;;;4.92;100.00
20043;BME280;10182;52.896;6.496;2023-02-13T19:31:30;103491.97;;;4.85;100.00
20043;BME280;10182;52.896;6.496;2023-02-13T19:36:33;103489.41;;;4.88;100.00
20043;BME280;10182;52.896;6.496;2023-02-13T19:41:35;103485.81;;;4.83;100.00
20043;BME280;10182;52.896;6.496;2023-02-13T19:46:39;103489.16;;;4.75;100.00
20043;BME280;10182;52.896;6.496;2023-02-13T19:51:42;103486.50;;;4.74;100.00
20043;BME280;10182;52.896;6.496;2023-02-13T19:56:45;103486.22;;;4.62;100.00
20043;BME280;10182;52.896;6.496;2023-02-13T20:01:47;103495.16;;;4.30;100.00
20043;BME280;10182;52.896;6.496;2023-02-13T20:06:50;103494.53;;;4.04;100.00
20043;BME280;10182;52.896;6.496;2023-02-13T20:11:56;103499.09;;;3.76;100.00
20043;BME280;10182;52.896;6.496;2023-02-13T20:16:58;103502.78;;;3.51;100.00
20043;BME280;10182;52.896;6.496;2023-02-13T20:22:01;103506.81;;;3.38;100.00
20043;BME280;10182;52.896;6.496;2023-02-13T20:27:03;103515.25;;;3.28;100.00
20043;BME280;10182;52.896;6.496;2023-02-13T20:32:05;103515.16;;;3.23;100.00
20043;BME280;10182;52.896;6.496;2023-02-13T20:37:08;103519.41;;;3.19;100.00
20043;BME280;10182;52.896;6.496;2023-02-13T20:42:14;103520.19;;;3.17;100.00
20043;BME280;10182;52.896;6.496;2023-02-13T20:47:16;103515.81;;;3.16;100.00
20043;BME280;10182;52.896;6.496;2023-02-13T20:52:19;103514.88;;;3.14;100.00
20043;BME280;10182;52.896;6.496;2023-02-13T20:57:21;103513.13;;;3.14;100.00
20043;BME280;10182;52.896;6.496;2023-02-13T21:02:22;103514.03;;;3.15;100.00
20043;BME280;10182;52.896;6.496;2023-02-13T21:07:25;103521.75;;;3.10;100.00
20043;BME280;10182;52.896;6.496;2023-02-13T21:12:27;103519.88;;;3.06;100.00
20043;BME280;10182;52.896;6.496;2023-02-13T21:17:29;103521.38;;;2.98;100.00
20043;BME280;10182;52.896;6.496;2023-02-13T21:22:32;103528.28;;;2.94;100.00
20043;BME280;10182;52.896;6.496;2023-02-13T21:27:33;103525.47;;;2.88;100.00
20043;BME280;10182;52.896;6.496;2023-02-13T21:32:35;103518.34;;;2.82;100.00
20043;BME280;10182;52.896;6.496;2023-02-13T21:37:40;103519.75;;;2.71;100.00
20043;BME280;10182;52.896;6.496;2023-02-13T21:42:41;103517.78;;;2.64;100.00
20043;BME280;10182;52.896;6.496;2023-02-13T21:47:43;103513.47;;;2.66;100.00
20043;BME280;10182;52.896;6.496;2023-02-13T21:52:46;103509.72;;;2.58;100.00
20043;BME280;10182;52.896;6.496;2023-02-13T21:57:48;103501.84;;;2.56;100.00
20043;BME280;10182;52.896;6.496;2023-02-13T22:02:50;103503.47;;;2.52;100.00
20043;BME280;10182;52.896;6.496;2023-02-13T22:07:53;103497.19;;;2.47;100.00
20043;BME280;10182;52.896;6.496;2023-02-13T22:13:11;103499.75;;;2.46;100.00
20043;BME280;10182;52.896;6.496;2023-02-13T22:18:13;103495.41;;;2.45;100.00
20043;BME280;10182;52.896;6.496;2023-02-13T22:23:16;103496.03;;;2.37;100.00
20043;BME280;10182;52.896;6.496;2023-02-13T22:28:20;103491.44;;;2.30;100.00
20043;BME280;10182;52.896;6.496;2023-02-13T22:33:22;103489.28;;;2.17;100.00
20043;BME280;10182;52.896;6.496;2023-02-13T22:38:25;103483.75;;;2.08;100.00
20043;BME280;10182;52.896;6.496;2023-02-13T22:43:27;103500.91;;;1.99;100.00
20043;BME280;10182;52.896;6.496;2023-02-13T22:48:29;103486.81;;;1.94;100.00
20043;BME280;10182;52.896;6.496;2023-02-13T22:53:32;103489.16;;;1.86;100.00
20043;BME280;10182;52.896;6.496;2023-02-13T22:58:34;103493.03;;;1.72;100.00
20043;BME280;10182;52.896;6.496;2023-02-13T23:03:35;103474.94;;;1.52;100.00
20043;BME280;10182;52.896;6.496;2023-02-13T23:08:39;103482.59;;;1.46;100.00
20043;BME280;10182;52.896;6.496;2023-02-13T23:13:42;103481.06;;;1.53;100.00
20043;BME280;10182;52.896;6.496;2023-02-13T23:18:49;103469.94;;;1.59;100.00
20043;BME280;10182;52.896;6.496;2023-02-13T23:23:52;103477.78;;;1.59;100.00
20043;BME280;10182;52.896;6.496;2023-02-13T23:28:54;103479.34;;;1.54;100.00
20043;BME280;10182;52.896;6.496;2023-02-13T23:33:56;103470.56;;;1.51;100.00
20043;BME280;10182;52.896;6.496;2023-02-13T23:38:59;103465.19;;;1.47;100.00
20043;BME280;10182;52.896;6.496;2023-02-13T23:44:00;103466.84;;;1.45;100.00
20043;BME280;10182;52.896;6.496;2023-02-13T23:49:02;103465.22;;;1.48;100.00
20043;BME280;10182;52.896;6.496;2023-02-13T23:54:05;103461.84;;;1.51;100.00
